sensor_id;sensor_type;location;lat;lon;timestamp;P1;durP1;ratioP1;P2;durP2;ratioP2
37945;SDS011;23769;52.478;13.448;2022-10-31T00:00:55;43.88;;;27.92;;
37945;SDS011;23769;52.478;13.448;2022-10-31T00:03:22;44.53;;;28.33;;
37945;SDS011;23769;52.478;13.448;2022-10-31T00:05:51;44.13;;;27.42;;
37945;SDS011;23769;52.478;13.448;2022-10-31T00:08:18;42.08;;;27.98;;
37945;SDS011;23769;52.478;13.448;2022-10-31T00:10:47;40.88;;;27.25;;
37945;SDS011;23769;52.478;13.448;2022-10-31T00:13:14;46.35;;;29.00;;
37945;SDS011;23769;52.478;13.448;2022-10-31T00:15:41;44.25;;;28.42;;
37945;SDS011;23769;52.478;13.448;2022-10-31T00:18:09;47.30;;;29.08;;
37945;SDS011;23769;52.478;13.448;2022-10-31T00:20:36;44.53;;;28.85;;
37945;SDS011;23769;52.478;13.448;2022-10-31T00:23:03;76.13;;;56.28;;
37945;SDS011;23769;52.478;13.448;2022-10-31T00:25:33;78.85;;;63.00;;
37945;SDS011;23769;52.478;13.448;2022-10-31T00:28:01;68.00;;;49.60;;
37945;SDS011;23769;52.478;13.448;2022-10-31T00:30:28;46.97;;;29.70;;
37945;SDS011;23769;52.478;13.448;2022-10-31T00:32:55;43.17;;;28.27;;
37945;SDS011;23769;52.478;13.448;2022-10-31T00:35:22;50.42;;;30.88;;
37945;SDS011;23769;52.478;13.448;2022-10-31T00:37:50;42.22;;;27.00;;
37945;SDS011;23769;52.478;13.448;2022-10-31T00:40:17;39.92;;;27.63;;
37945;SDS011;23769;52.478;13.448;2022-10-31T00:42:44;47.63;;;32.35;;
37945;SDS011;23769;52.478;13.448;2022-10-31T00:45:13;44.63;;;31.50;;
37945;SDS011;23769;52.478;13.448;2022-10-31T00:47:40;46.92;;;30.92;;
37945;SDS011;23769;52.478;13.448;2022-10-31T00:50:07;45.05;;;29.45;;
37945;SDS011;23769;52.478;13.448;2022-10-31T00:52:34;50.25;;;30.55;;
37945;SDS011;23769;52.478;13.448;2022-10-31T00:55:02;44.38;;;30.00;;
37945;SDS011;23769;52.478;13.448;2022-10-31T00:57:29;46.30;;;28.80;;
37945;SDS011;23769;52.478;13.448;2022-10-31T00:59:56;45.42;;;31.73;;
37945;SDS011;23769;52.478;13.448;2022-10-31T01:02:24;46.72;;;31.75;;
37945;SDS011;23769;52.478;13.448;2022-10-31T01:04:51;50.75;;;32.53;;
37945;SDS011;23769;52.478;13.448;2022-10-31T01:07:18;47.97;;;31.00;;
37945;SDS011;23769;52.478;13.448;2022-10-31T01:09:45;46.13;;;29.95;;
37945;SDS011;23769;52.478;13.448;2022-10-31T01:12:13;43.20;;;28.20;;
37945;SDS011;23769;52.478;13.448;2022-10-31T01:14:42;41.85;;;27.05;;
37945;SDS011;23769;52.478;13.448;2022-10-31T01:17:09;43.90;;;28.70;;
37945;SDS011;23769;52.478;13.448;2022-10-31T01:19:38;41.20;;;26.60;;
37945;SDS011;23769;52.478;13.448;2022-10-31T01:22:05;39.17;;;25.83;;
37945;SDS011;23769;52.478;13.448;2022-10-31T01:24:32;41.13;;;25.75;;
37945;SDS011;23769;52.478;13.448;2022-10-31T01:26:59;45.22;;;24.60;;
37945;SDS011;23769;52.478;13.448;2022-10-31T01:29:26;37.67;;;24.63;;
37945;SDS011;23769;52.478;13.448;2022-10-31T01:31:53;35.88;;;21.15;;
37945;SDS011;23769;52.478;13.448;2022-10-31T01:34:20;34.85;;;21.65;;
37945;SDS011;23769;52.478;13.448;2022-10-31T01:36:49;32.38;;;21.05;;
37945;SDS011;23769;52.478;13.448;2022-10-31T01:39:17;33.05;;;22.35;;
37945;SDS011;23769;52.478;13.448;2022-10-31T01:41:45;31.23;;;19.63;;
37945;SDS011;23769;52.478;13.448;2022-10-31T01:46:59;31.40;;;18.55;;
37945;SDS011;23769;52.478;13.448;2022-10-31T01:49:28;25.52;;;17.15;;
37945;SDS011;23769;52.478;13.448;2022-10-31T01:52:00;26.52;;;18.20;;
37945;SDS011;23769;52.478;13.448;2022-10-31T01:54:30;32.77;;;18.97;;
37945;SDS011;23769;52.478;13.448;2022-10-31T01:56:58;32.90;;;19.02;;
37945;SDS011;23769;52.478;13.448;2022-10-31T01:59:26;29.67;;;19.08;;
37945;SDS011;23769;52.478;13.448;2022-10-31T02:01:54;28.63;;;19.90;;
37945;SDS011;23769;52.478;13.448;2022-10-31T02:04:23;26.77;;;18.27;;
37945;SDS011;23769;52.478;13.448;2022-10-31T02:06:51;28.23;;;16.25;;
37945;SDS011;23769;52.478;13.448;2022-10-31T02:09:21;22.63;;;16.08;;
37945;SDS011;23769;52.478;13.448;2022-10-31T02:11:49;27.77;;;18.17;;
37945;SDS011;23769;52.478;13.448;2022-10-31T02:14:18;27.13;;;17.15;;
37945;SDS011;23769;52.478;13.448;2022-10-31T02:16:45;30.65;;;18.83;;
37945;SDS011;23769;52.478;13.448;2022-10-31T02:19:13;26.15;;;16.23;;
37945;SDS011;23769;52.478;13.448;2022-10-31T02:21:45;24.65;;;16.27;;
37945;SDS011;23769;52.478;13.448;2022-10-31T02:24:21;29.88;;;18.55;;
37945;SDS011;23769;52.478;13.448;2022-10-31T02:29:43;32.17;;;15.90;;
37945;SDS011;23769;52.478;13.448;2022-10-31T02:32:15;24.77;;;15.05;;
37945;SDS011;23769;52.478;13.448;2022-10-31T02:34:47;23.38;;;15.57;;
37945;SDS011;23769;52.478;13.448;2022-10-31T02:37:16;26.95;;;17.17;;
37945;SDS011;23769;52.478;13.448;2022-10-31T02:39:47;27.63;;;17.35;;
37945;SDS011;23769;52.478;13.448;2022-10-31T02:42:20;22.33;;;16.15;;
37945;SDS011;23769;52.478;13.448;2022-10-31T02:44:51;24.48;;;15.35;;
37945;SDS011;23769;52.478;13.448;2022-10-31T02:47:23;22.33;;;15.85;;
37945;SDS011;23769;52.478;13.448;2022-10-31T02:49:53;22.65;;;15.73;;
37945;SDS011;23769;52.478;13.448;2022-10-31T02:52:24;27.00;;;15.32;;
37945;SDS011;23769;52.478;13.448;2022-10-31T02:54:51;24.88;;;15.57;;
37945;SDS011;23769;52.478;13.448;2022-10-31T02:57:20;27.35;;;17.45;;
37945;SDS011;23769;52.478;13.448;2022-10-31T02:59:50;27.45;;;19.10;;
37945;SDS011;23769;52.478;13.448;2022-10-31T03:02:23;23.80;;;15.93;;
37945;SDS011;23769;52.478;13.448;2022-10-31T03:07:41;26.23;;;16.73;;
37945;SDS011;23769;52.478;13.448;2022-10-31T03:10:12;24.23;;;15.90;;
37945;SDS011;23769;52.478;13.448;2022-10-31T03:12:43;27.92;;;17.17;;
37945;SDS011;23769;52.478;13.448;2022-10-31T03:15:21;25.52;;;15.88;;
37945;SDS011;23769;52.478;13.448;2022-10-31T03:17:52;28.92;;;16.90;;
37945;SDS011;23769;52.478;13.448;2022-10-31T03:20:22;26.88;;;16.30;;
37945;SDS011;23769;52.478;13.448;2022-10-31T03:22:51;25.35;;;15.57;;
37945;SDS011;23769;52.478;13.448;2022-10-31T03:25:19;31.27;;;18.85;;
37945;SDS011;23769;52.478;13.448;2022-10-31T03:27:46;21.48;;;14.90;;
37945;SDS011;23769;52.478;13.448;2022-10-31T03:30:13;24.85;;;16.55;;
37945;SDS011;23769;52.478;13.448;2022-10-31T03:32:42;29.30;;;16.65;;
37945;SDS011;23769;52.478;13.448;2022-10-31T03:35:12;26.35;;;16.33;;
37945;SDS011;23769;52.478;13.448;2022-10-31T03:37:40;28.73;;;16.30;;
37945;SDS011;23769;52.478;13.448;2022-10-31T03:40:07;25.30;;;15.40;;
37945;SDS011;23769;52.478;13.448;2022-10-31T03:42:37;28.42;;;15.13;;
37945;SDS011;23769;52.478;13.448;2022-10-31T03:45:06;34.85;;;17.83;;
37945;SDS011;23769;52.478;13.448;2022-10-31T03:47:34;23.95;;;16.15;;
37945;SDS011;23769;52.478;13.448;2022-10-31T03:50:03;26.58;;;15.57;;
37945;SDS011;23769;52.478;13.448;2022-10-31T03:52:33;26.90;;;17.25;;
37945;SDS011;23769;52.478;13.448;2022-10-31T03:55:04;23.92;;;15.43;;
37945;SDS011;23769;52.478;13.448;2022-10-31T03:57:48;25.50;;;15.48;;
37945;SDS011;23769;52.478;13.448;2022-10-31T04:00:18;29.55;;;18.35;;
37945;SDS011;23769;52.478;13.448;2022-10-31T04:02:46;27.05;;;17.77;;
37945;SDS011;23769;52.478;13.448;2022-10-31T04:05:16;24.40;;;16.70;;
37945;SDS011;23769;52.478;13.448;2022-10-31T04:07:46;25.40;;;16.13;;
37945;SDS011;23769;52.478;13.448;2022-10-31T04:10:14;24.17;;;16.33;;
37945;SDS011;23769;52.478;13.448;2022-10-31T04:12:42;22.77;;;14.35;;
37945;SDS011;23769;52.478;13.448;2022-10-31T04:15:10;32.03;;;16.73;;
37945;SDS011;23769;52.478;13.448;2022-10-31T04:17:38;23.77;;;15.25;;
37945;SDS011;23769;52.478;13.448;2022-10-31T04:20:06;26.38;;;17.45;;
37945;SDS011;23769;52.478;13.448;2022-10-31T04:22:33;24.10;;;14.77;;
37945;SDS011;23769;52.478;13.448;2022-10-31T04:25:02;27.08;;;16.02;;
37945;SDS011;23769;52.478;13.448;2022-10-31T04:27:29;24.45;;;14.75;;
37945;SDS011;23769;52.478;13.448;2022-10-31T04:29:56;24.33;;;14.95;;
37945;SDS011;23769;52.478;13.448;2022-10-31T04:32:24;31.98;;;18.52;;
37945;SDS011;23769;52.478;13.448;2022-10-31T04:34:51;24.42;;;14.85;;
37945;SDS011;23769;52.478;13.448;2022-10-31T04:37:18;25.45;;;14.52;;
37945;SDS011;23769;52.478;13.448;2022-10-31T04:39:45;26.05;;;16.13;;
37945;SDS011;23769;52.478;13.448;2022-10-31T04:42:14;30.38;;;16.25;;
37945;SDS011;23769;52.478;13.448;2022-10-31T04:44:41;22.17;;;16.55;;
37945;SDS011;23769;52.478;13.448;2022-10-31T04:47:08;26.83;;;15.02;;
37945;SDS011;23769;52.478;13.448;2022-10-31T04:49:35;24.02;;;16.15;;
37945;SDS011;23769;52.478;13.448;2022-10-31T04:52:02;24.00;;;15.32;;
37945;SDS011;23769;52.478;13.448;2022-10-31T04:54:29;28.92;;;16.45;;
37945;SDS011;23769;52.478;13.448;2022-10-31T04:56:56;24.13;;;14.35;;
37945;SDS011;23769;52.478;13.448;2022-10-31T04:59:25;23.40;;;14.75;;
37945;SDS011;23769;52.478;13.448;2022-10-31T05:01:52;27.80;;;15.27;;
37945;SDS011;23769;52.478;13.448;2022-10-31T05:04:19;26.98;;;15.07;;
37945;SDS011;23769;52.478;13.448;2022-10-31T05:06:46;26.70;;;17.98;;
37945;SDS011;23769;52.478;13.448;2022-10-31T05:09:13;27.25;;;15.40;;
37945;SDS011;23769;52.478;13.448;2022-10-31T05:11:40;23.73;;;14.73;;
37945;SDS011;23769;52.478;13.448;2022-10-31T05:14:07;23.77;;;16.25;;
37945;SDS011;23769;52.478;13.448;2022-10-31T05:16:36;28.45;;;14.77;;
37945;SDS011;23769;52.478;13.448;2022-10-31T05:19:03;22.80;;;15.15;;
37945;SDS011;23769;52.478;13.448;2022-10-31T05:21:30;28.95;;;15.98;;
37945;SDS011;23769;52.478;13.448;2022-10-31T05:23:57;29.98;;;14.90;;
37945;SDS011;23769;52.478;13.448;2022-10-31T05:26:24;25.17;;;15.45;;
37945;SDS011;23769;52.478;13.448;2022-10-31T05:28:51;23.40;;;14.38;;
37945;SDS011;23769;52.478;13.448;2022-10-31T05:31:18;27.30;;;16.15;;
37945;SDS011;23769;52.478;13.448;2022-10-31T05:33:47;24.33;;;15.32;;
37945;SDS011;23769;52.478;13.448;2022-10-31T05:36:14;23.92;;;14.70;;
37945;SDS011;23769;52.478;13.448;2022-10-31T05:38:41;28.85;;;17.20;;
37945;SDS011;23769;52.478;13.448;2022-10-31T05:41:08;27.77;;;17.50;;
37945;SDS011;23769;52.478;13.448;2022-10-31T05:43:35;28.20;;;17.90;;
37945;SDS011;23769;52.478;13.448;2022-10-31T05:46:03;30.05;;;17.38;;
37945;SDS011;23769;52.478;13.448;2022-10-31T05:48:30;25.63;;;16.05;;
37945;SDS011;23769;52.478;13.448;2022-10-31T05:50:58;24.85;;;15.68;;
37945;SDS011;23769;52.478;13.448;2022-10-31T05:53:25;32.17;;;17.73;;
37945;SDS011;23769;52.478;13.448;2022-10-31T05:55:52;24.02;;;14.82;;
37945;SDS011;23769;52.478;13.448;2022-10-31T05:58:19;28.70;;;16.33;;
37945;SDS011;23769;52.478;13.448;2022-10-31T06:00:47;25.20;;;16.52;;
37945;SDS011;23769;52.478;13.448;2022-10-31T06:03:14;25.63;;;15.77;;
37945;SDS011;23769;52.478;13.448;2022-10-31T06:05:41;25.38;;;16.15;;
37945;SDS011;23769;52.478;13.448;2022-10-31T06:08:09;27.25;;;18.42;;
37945;SDS011;23769;52.478;13.448;2022-10-31T06:10:36;23.17;;;15.05;;
37945;SDS011;23769;52.478;13.448;2022-10-31T06:13:03;24.80;;;15.38;;
37945;SDS011;23769;52.478;13.448;2022-10-31T06:15:32;30.20;;;15.57;;
37945;SDS011;23769;52.478;13.448;2022-10-31T06:18:00;25.08;;;17.08;;
37945;SDS011;23769;52.478;13.448;2022-10-31T06:20:27;34.28;;;18.55;;
37945;SDS011;23769;52.478;13.448;2022-10-31T06:22:54;31.25;;;17.35;;
37945;SDS011;23769;52.478;13.448;2022-10-31T06:25:23;28.00;;;17.00;;
37945;SDS011;23769;52.478;13.448;2022-10-31T06:27:50;27.58;;;16.65;;
37945;SDS011;23769;52.478;13.448;2022-10-31T06:30:17;25.65;;;15.70;;
37945;SDS011;23769;52.478;13.448;2022-10-31T06:32:44;27.42;;;17.17;;
37945;SDS011;23769;52.478;13.448;2022-10-31T06:35:11;20.63;;;14.57;;
37945;SDS011;23769;52.478;13.448;2022-10-31T06:37:38;26.20;;;16.02;;
37945;SDS011;23769;52.478;13.448;2022-10-31T06:40:06;22.70;;;15.02;;
37945;SDS011;23769;52.478;13.448;2022-10-31T06:42:34;28.23;;;15.32;;
37945;SDS011;23769;52.478;13.448;2022-10-31T06:45:01;26.42;;;15.63;;
37945;SDS011;23769;52.478;13.448;2022-10-31T06:47:28;29.20;;;16.40;;
37945;SDS011;23769;52.478;13.448;2022-10-31T06:49:56;27.38;;;16.02;;
37945;SDS011;23769;52.478;13.448;2022-10-31T06:52:23;26.35;;;16.17;;
37945;SDS011;23769;52.478;13.448;2022-10-31T06:54:50;25.02;;;14.75;;
37945;SDS011;23769;52.478;13.448;2022-10-31T06:57:17;26.10;;;15.45;;
37945;SDS011;23769;52.478;13.448;2022-10-31T06:59:45;27.27;;;15.68;;
37945;SDS011;23769;52.478;13.448;2022-10-31T07:02:12;27.23;;;14.52;;
37945;SDS011;23769;52.478;13.448;2022-10-31T07:04:39;28.98;;;16.15;;
37945;SDS011;23769;52.478;13.448;2022-10-31T07:07:06;24.38;;;14.80;;
37945;SDS011;23769;52.478;13.448;2022-10-31T07:09:33;28.42;;;18.05;;
37945;SDS011;23769;52.478;13.448;2022-10-31T07:12:00;36.20;;;23.98;;
37945;SDS011;23769;52.478;13.448;2022-10-31T07:14:27;33.55;;;18.48;;
37945;SDS011;23769;52.478;13.448;2022-10-31T07:16:56;21.63;;;13.98;;
37945;SDS011;23769;52.478;13.448;2022-10-31T07:19:23;24.35;;;15.18;;
37945;SDS011;23769;52.478;13.448;2022-10-31T07:21:50;21.73;;;14.48;;
37945;SDS011;23769;52.478;13.448;2022-10-31T07:24:17;25.42;;;14.43;;
37945;SDS011;23769;52.478;13.448;2022-10-31T07:26:45;28.20;;;16.02;;
37945;SDS011;23769;52.478;13.448;2022-10-31T07:29:12;31.17;;;15.88;;
37945;SDS011;23769;52.478;13.448;2022-10-31T07:31:39;24.45;;;15.45;;
37945;SDS011;23769;52.478;13.448;2022-10-31T07:34:08;22.23;;;13.40;;
37945;SDS011;23769;52.478;13.448;2022-10-31T07:36:35;21.42;;;12.88;;
37945;SDS011;23769;52.478;13.448;2022-10-31T07:39:02;20.20;;;13.00;;
37945;SDS011;23769;52.478;13.448;2022-10-31T07:41:29;19.77;;;12.50;;
37945;SDS011;23769;52.478;13.448;2022-10-31T07:43:56;25.27;;;14.63;;
37945;SDS011;23769;52.478;13.448;2022-10-31T07:46:23;22.13;;;12.35;;
37945;SDS011;23769;52.478;13.448;2022-10-31T07:48:50;22.15;;;13.65;;
37945;SDS011;23769;52.478;13.448;2022-10-31T07:51:19;26.95;;;13.57;;
37945;SDS011;23769;52.478;13.448;2022-10-31T07:53:46;22.88;;;11.88;;
37945;SDS011;23769;52.478;13.448;2022-10-31T07:56:13;25.65;;;15.30;;
37945;SDS011;23769;52.478;13.448;2022-10-31T07:58:40;18.60;;;12.45;;
37945;SDS011;23769;52.478;13.448;2022-10-31T08:01:07;22.73;;;14.13;;
37945;SDS011;23769;52.478;13.448;2022-10-31T08:03:34;23.13;;;14.15;;
37945;SDS011;23769;52.478;13.448;2022-10-31T08:06:01;20.80;;;12.02;;
37945;SDS011;23769;52.478;13.448;2022-10-31T08:08:30;20.30;;;13.38;;
37945;SDS011;23769;52.478;13.448;2022-10-31T08:10:57;24.10;;;13.35;;
37945;SDS011;23769;52.478;13.448;2022-10-31T08:13:24;21.77;;;12.23;;
37945;SDS011;23769;52.478;13.448;2022-10-31T08:15:51;24.58;;;14.57;;
37945;SDS011;23769;52.478;13.448;2022-10-31T08:18:19;31.13;;;15.57;;
37945;SDS011;23769;52.478;13.448;2022-10-31T08:20:48;24.58;;;16.73;;
37945;SDS011;23769;52.478;13.448;2022-10-31T08:23:15;27.98;;;15.90;;
37945;SDS011;23769;52.478;13.448;2022-10-31T08:25:44;30.95;;;19.05;;
37945;SDS011;23769;52.478;13.448;2022-10-31T08:28:12;33.53;;;18.75;;
37945;SDS011;23769;52.478;13.448;2022-10-31T08:30:40;35.63;;;22.00;;
37945;SDS011;23769;52.478;13.448;2022-10-31T08:33:09;31.80;;;19.00;;
37945;SDS011;23769;52.478;13.448;2022-10-31T08:35:36;57.85;;;36.50;;
37945;SDS011;23769;52.478;13.448;2022-10-31T08:38:03;33.28;;;21.27;;
37945;SDS011;23769;52.478;13.448;2022-10-31T08:40:32;32.10;;;18.48;;
37945;SDS011;23769;52.478;13.448;2022-10-31T08:43:02;34.75;;;17.48;;
37945;SDS011;23769;52.478;13.448;2022-10-31T08:45:29;34.05;;;19.38;;
37945;SDS011;23769;52.478;13.448;2022-10-31T08:47:57;28.02;;;18.33;;
37945;SDS011;23769;52.478;13.448;2022-10-31T08:50:25;36.42;;;22.55;;
37945;SDS011;23769;52.478;13.448;2022-10-31T08:52:52;27.27;;;17.45;;
37945;SDS011;23769;52.478;13.448;2022-10-31T08:55:19;36.47;;;18.30;;
37945;SDS011;23769;52.478;13.448;2022-10-31T08:57:46;30.58;;;18.05;;
37945;SDS011;23769;52.478;13.448;2022-10-31T09:00:15;31.38;;;18.55;;
37945;SDS011;23769;52.478;13.448;2022-10-31T09:02:42;29.75;;;17.40;;
37945;SDS011;23769;52.478;13.448;2022-10-31T09:05:09;29.80;;;17.90;;
37945;SDS011;23769;52.478;13.448;2022-10-31T09:07:36;28.60;;;17.95;;
37945;SDS011;23769;52.478;13.448;2022-10-31T09:10:04;28.77;;;17.17;;
37945;SDS011;23769;52.478;13.448;2022-10-31T09:12:31;27.30;;;18.27;;
37945;SDS011;23769;52.478;13.448;2022-10-31T09:14:58;32.35;;;19.58;;
37945;SDS011;23769;52.478;13.448;2022-10-31T09:17:28;28.00;;;17.27;;
37945;SDS011;23769;52.478;13.448;2022-10-31T09:19:55;25.08;;;16.85;;
37945;SDS011;23769;52.478;13.448;2022-10-31T09:22:22;29.25;;;17.20;;
37945;SDS011;23769;52.478;13.448;2022-10-31T09:24:49;27.60;;;17.98;;
37945;SDS011;23769;52.478;13.448;2022-10-31T09:27:16;31.38;;;19.52;;
37945;SDS011;23769;52.478;13.448;2022-10-31T09:29:43;31.38;;;19.95;;
37945;SDS011;23769;52.478;13.448;2022-10-31T09:32:10;32.80;;;19.83;;
37945;SDS011;23769;52.478;13.448;2022-10-31T09:34:39;30.00;;;18.63;;
37945;SDS011;23769;52.478;13.448;2022-10-31T09:37:06;35.95;;;20.70;;
37945;SDS011;23769;52.478;13.448;2022-10-31T09:39:33;35.35;;;19.20;;
37945;SDS011;23769;52.478;13.448;2022-10-31T09:42:03;33.85;;;19.75;;
37945;SDS011;23769;52.478;13.448;2022-10-31T09:44:35;33.35;;;20.17;;
37945;SDS011;23769;52.478;13.448;2022-10-31T09:47:08;41.42;;;22.80;;
37945;SDS011;23769;52.478;13.448;2022-10-31T09:49:43;29.05;;;19.70;;
37945;SDS011;23769;52.478;13.448;2022-10-31T09:52:17;36.78;;;22.05;;
37945;SDS011;23769;52.478;13.448;2022-10-31T09:54:46;32.35;;;18.08;;
37945;SDS011;23769;52.478;13.448;2022-10-31T09:57:14;31.88;;;19.42;;
37945;SDS011;23769;52.478;13.448;2022-10-31T09:59:43;35.92;;;20.52;;
37945;SDS011;23769;52.478;13.448;2022-10-31T10:02:13;33.80;;;20.25;;
37945;SDS011;23769;52.478;13.448;2022-10-31T10:04:46;28.63;;;19.58;;
37945;SDS011;23769;52.478;13.448;2022-10-31T10:07:16;33.58;;;21.50;;
37945;SDS011;23769;52.478;13.448;2022-10-31T10:09:46;33.55;;;19.80;;
37945;SDS011;23769;52.478;13.448;2022-10-31T10:12:15;40.05;;;20.33;;
37945;SDS011;23769;52.478;13.448;2022-10-31T10:14:47;33.95;;;19.92;;
37945;SDS011;23769;52.478;13.448;2022-10-31T10:17:21;26.58;;;16.98;;
37945;SDS011;23769;52.478;13.448;2022-10-31T10:19:56;35.05;;;19.17;;
37945;SDS011;23769;52.478;13.448;2022-10-31T10:22:27;30.63;;;18.42;;
37945;SDS011;23769;52.478;13.448;2022-10-31T10:25:00;33.90;;;21.15;;
37945;SDS011;23769;52.478;13.448;2022-10-31T10:27:36;26.63;;;17.30;;
37945;SDS011;23769;52.478;13.448;2022-10-31T10:30:11;32.65;;;19.48;;
37945;SDS011;23769;52.478;13.448;2022-10-31T10:32:40;30.90;;;19.63;;
37945;SDS011;23769;52.478;13.448;2022-10-31T10:35:14;34.47;;;22.08;;
37945;SDS011;23769;52.478;13.448;2022-10-31T10:37:44;39.53;;;21.60;;
37945;SDS011;23769;52.478;13.448;2022-10-31T10:40:13;40.60;;;23.70;;
37945;SDS011;23769;52.478;13.448;2022-10-31T10:42:43;39.67;;;25.00;;
37945;SDS011;23769;52.478;13.448;2022-10-31T10:45:29;30.98;;;19.83;;
37945;SDS011;23769;52.478;13.448;2022-10-31T10:48:15;33.22;;;19.85;;
37945;SDS011;23769;52.478;13.448;2022-10-31T10:50:46;32.17;;;17.88;;
37945;SDS011;23769;52.478;13.448;2022-10-31T10:53:18;27.23;;;17.97;;
37945;SDS011;23769;52.478;13.448;2022-10-31T10:55:58;32.97;;;17.50;;
37945;SDS011;23769;52.478;13.448;2022-10-31T10:58:26;25.42;;;17.20;;
37945;SDS011;23769;52.478;13.448;2022-10-31T11:00:53;24.30;;;16.58;;
37945;SDS011;23769;52.478;13.448;2022-10-31T11:03:21;30.00;;;18.45;;
37945;SDS011;23769;52.478;13.448;2022-10-31T11:05:50;28.75;;;17.83;;
37945;SDS011;23769;52.478;13.448;2022-10-31T11:08:27;33.55;;;21.92;;
37945;SDS011;23769;52.478;13.448;2022-10-31T11:11:01;30.38;;;19.27;;
37945;SDS011;23769;52.478;13.448;2022-10-31T11:13:29;27.55;;;19.55;;
37945;SDS011;23769;52.478;13.448;2022-10-31T11:15:57;39.42;;;27.20;;
37945;SDS011;23769;52.478;13.448;2022-10-31T11:18:26;49.33;;;28.52;;
37945;SDS011;23769;52.478;13.448;2022-10-31T11:20:57;27.83;;;19.08;;
37945;SDS011;23769;52.478;13.448;2022-10-31T11:23:24;29.17;;;18.23;;
37945;SDS011;23769;52.478;13.448;2022-10-31T11:25:54;29.73;;;18.05;;
37945;SDS011;23769;52.478;13.448;2022-10-31T11:28:21;25.75;;;16.58;;
37945;SDS011;23769;52.478;13.448;2022-10-31T11:30:48;30.75;;;17.58;;
37945;SDS011;23769;52.478;13.448;2022-10-31T11:33:18;30.42;;;18.10;;
37945;SDS011;23769;52.478;13.448;2022-10-31T11:35:46;27.58;;;17.35;;
37945;SDS011;23769;52.478;13.448;2022-10-31T11:38:16;28.52;;;18.67;;
37945;SDS011;23769;52.478;13.448;2022-10-31T11:40:54;30.63;;;17.92;;
37945;SDS011;23769;52.478;13.448;2022-10-31T11:43:22;28.67;;;17.10;;
37945;SDS011;23769;52.478;13.448;2022-10-31T11:45:50;37.25;;;19.48;;
37945;SDS011;23769;52.478;13.448;2022-10-31T11:48:17;31.10;;;18.55;;
37945;SDS011;23769;52.478;13.448;2022-10-31T11:50:47;33.08;;;18.42;;
37945;SDS011;23769;52.478;13.448;2022-10-31T11:53:16;29.58;;;18.45;;
37945;SDS011;23769;52.478;13.448;2022-10-31T11:55:45;27.98;;;17.42;;
37945;SDS011;23769;52.478;13.448;2022-10-31T11:58:19;36.80;;;23.27;;
37945;SDS011;23769;52.478;13.448;2022-10-31T12:00:48;28.65;;;17.55;;
37945;SDS011;23769;52.478;13.448;2022-10-31T12:03:20;32.35;;;18.63;;
37945;SDS011;23769;52.478;13.448;2022-10-31T12:05:51;35.38;;;20.75;;
37945;SDS011;23769;52.478;13.448;2022-10-31T12:08:19;34.08;;;20.52;;
37945;SDS011;23769;52.478;13.448;2022-10-31T12:10:50;28.70;;;19.10;;
37945;SDS011;23769;52.478;13.448;2022-10-31T12:13:26;32.17;;;20.13;;
37945;SDS011;23769;52.478;13.448;2022-10-31T12:15:58;29.00;;;21.40;;
37945;SDS011;23769;52.478;13.448;2022-10-31T12:18:31;33.42;;;22.35;;
37945;SDS011;23769;52.478;13.448;2022-10-31T12:21:03;30.48;;;18.83;;
37945;SDS011;23769;52.478;13.448;2022-10-31T12:23:35;34.25;;;18.80;;
37945;SDS011;23769;52.478;13.448;2022-10-31T12:26:08;30.77;;;20.98;;
37945;SDS011;23769;52.478;13.448;2022-10-31T12:34:11;36.58;;;19.98;;
37945;SDS011;23769;52.478;13.448;2022-10-31T12:36:45;36.67;;;22.83;;
37945;SDS011;23769;52.478;13.448;2022-10-31T12:39:24;30.98;;;20.55;;
37945;SDS011;23769;52.478;13.448;2022-10-31T12:41:55;28.33;;;19.40;;
37945;SDS011;23769;52.478;13.448;2022-10-31T12:44:38;29.88;;;19.48;;
37945;SDS011;23769;52.478;13.448;2022-10-31T12:47:12;34.33;;;21.58;;
37945;SDS011;23769;52.478;13.448;2022-10-31T12:49:48;33.22;;;19.63;;
37945;SDS011;23769;52.478;13.448;2022-10-31T12:52:23;34.25;;;23.50;;
37945;SDS011;23769;52.478;13.448;2022-10-31T12:54:59;37.58;;;22.63;;
37945;SDS011;23769;52.478;13.448;2022-10-31T12:57:31;46.58;;;22.02;;
37945;SDS011;23769;52.478;13.448;2022-10-31T13:00:02;31.38;;;19.73;;
37945;SDS011;23769;52.478;13.448;2022-10-31T13:02:31;31.60;;;20.98;;
37945;SDS011;23769;52.478;13.448;2022-10-31T13:05:01;38.00;;;22.63;;
37945;SDS011;23769;52.478;13.448;2022-10-31T13:07:30;37.97;;;23.73;;
37945;SDS011;23769;52.478;13.448;2022-10-31T13:09:59;37.00;;;23.00;;
37945;SDS011;23769;52.478;13.448;2022-10-31T13:12:29;34.25;;;22.75;;
37945;SDS011;23769;52.478;13.448;2022-10-31T13:14:58;39.33;;;23.52;;
37945;SDS011;23769;52.478;13.448;2022-10-31T13:17:28;37.60;;;24.05;;
37945;SDS011;23769;52.478;13.448;2022-10-31T13:20:01;38.15;;;23.05;;
37945;SDS011;23769;52.478;13.448;2022-10-31T13:22:32;44.88;;;24.90;;
37945;SDS011;23769;52.478;13.448;2022-10-31T13:25:02;39.03;;;24.80;;
37945;SDS011;23769;52.478;13.448;2022-10-31T13:27:33;39.88;;;24.40;;
37945;SDS011;23769;52.478;13.448;2022-10-31T13:30:05;41.70;;;25.15;;
37945;SDS011;23769;52.478;13.448;2022-10-31T13:32:40;37.30;;;26.05;;
37945;SDS011;23769;52.478;13.448;2022-10-31T13:35:10;37.38;;;23.23;;
37945;SDS011;23769;52.478;13.448;2022-10-31T13:37:40;32.22;;;22.20;;
37945;SDS011;23769;52.478;13.448;2022-10-31T13:40:12;37.30;;;23.25;;
37945;SDS011;23769;52.478;13.448;2022-10-31T13:45:13;36.50;;;23.38;;
37945;SDS011;23769;52.478;13.448;2022-10-31T13:47:40;33.85;;;21.67;;
37945;SDS011;23769;52.478;13.448;2022-10-31T13:50:19;35.00;;;22.50;;
37945;SDS011;23769;52.478;13.448;2022-10-31T13:52:46;44.15;;;26.60;;
37945;SDS011;23769;52.478;13.448;2022-10-31T13:57:59;45.53;;;23.80;;
37945;SDS011;23769;52.478;13.448;2022-10-31T14:00:31;39.05;;;25.02;;
37945;SDS011;23769;52.478;13.448;2022-10-31T14:03:00;44.63;;;24.85;;
37945;SDS011;23769;52.478;13.448;2022-10-31T14:05:29;39.65;;;25.02;;
37945;SDS011;23769;52.478;13.448;2022-10-31T14:07:58;39.95;;;23.40;;
37945;SDS011;23769;52.478;13.448;2022-10-31T14:10:26;41.67;;;27.13;;
37945;SDS011;23769;52.478;13.448;2022-10-31T14:12:54;44.22;;;27.70;;
37945;SDS011;23769;52.478;13.448;2022-10-31T14:15:29;48.00;;;27.05;;
37945;SDS011;23769;52.478;13.448;2022-10-31T14:17:58;45.92;;;26.00;;
37945;SDS011;23769;52.478;13.448;2022-10-31T14:25:53;45.90;;;25.92;;
37945;SDS011;23769;52.478;13.448;2022-10-31T14:28:21;40.97;;;26.52;;
37945;SDS011;23769;52.478;13.448;2022-10-31T14:30:52;42.95;;;26.00;;
37945;SDS011;23769;52.478;13.448;2022-10-31T14:33:20;38.67;;;23.80;;
37945;SDS011;23769;52.478;13.448;2022-10-31T14:35:51;41.53;;;25.05;;
37945;SDS011;23769;52.478;13.448;2022-10-31T14:38:23;41.55;;;23.98;;
37945;SDS011;23769;52.478;13.448;2022-10-31T14:40:59;46.50;;;24.73;;
37945;SDS011;23769;52.478;13.448;2022-10-31T14:43:36;39.17;;;23.88;;